sensor_id;sensor_type;location;lat;lon;timestamp;temperature;humidity
18392;DHT22;9322;50.932;5.318;2023-02-15T00:01:23;3.80;99.90
18392;DHT22;9322;50.932;5.318;2023-02-15T00:03:49;3.70;99.90
18392;DHT22;9322;50.932;5.318;2023-02-15T00:06:15;3.50;99.90
18392;DHT22;9322;50.932;5.318;2023-02-15T00:08:41;3.40;99.90
18392;DHT22;9322;50.932;5.318;2023-02-15T00:11:09;3.40;99.90
18392;DHT22;9322;50.932;5.318;2023-02-15T00:13:35;3.40;99.90
18392;DHT22;9322;50.932;5.318;2023-02-15T00:16:06;3.40;99.90
18392;DHT22;9322;50.932;5.318;2023-02-15T00:18:32;3.50;99.90
18392;DHT22;9322;50.932;5.318;2023-02-15T00:21:02;3.50;99.90
18392;DHT22;9322;50.932;5.318;2023-02-15T00:23:28;3.40;99.90
18392;DHT22;9322;50.932;5.318;2023-02-15T00:26:06;3.20;99.90
18392;DHT22;9322;50.932;5.318;2023-02-15T00:28:33;3.10;99.90
18392;DHT22;9322;50.932;5.318;2023-02-15T00:31:06;3.00;99.90
18392;DHT22;9322;50.932;5.318;2023-02-15T00:33:32;3.00;99.90
18392;DHT22;9322;50.932;5.318;2023-02-15T00:35:59;3.00;99.90
18392;DHT22;9322;50.932;5.318;2023-02-15T00:38:30;2.90;99.90
18392;DHT22;9322;50.932;5.318;2023-02-15T00:40:57;2.80;99.90
18392;DHT22;9322;50.932;5.318;2023-02-15T00:43:24;2.80;99.90
18392;DHT22;9322;50.932;5.318;2023-02-15T00:45:49;2.80;99.90
18392;DHT22;9322;50.932;5.318;2023-02-15T00:48:15;2.80;99.90
18392;DHT22;9322;50.932;5.318;2023-02-15T00:50:41;2.70;99.90
18392;DHT22;9322;50.932;5.318;2023-02-15T00:53:07;2.70;99.90
18392;DHT22;9322;50.932;5.318;2023-02-15T00:55:32;2.70;99.90
18392;DHT22;9322;50.932;5.318;2023-02-15T00:57:58;2.70;99.90
18392;DHT22;9322;50.932;5.318;2023-02-15T01:00:24;2.70;99.90
18392;DHT22;9322;50.932;5.318;2023-02-15T01:02:49;2.60;99.90
18392;DHT22;9322;50.932;5.318;2023-02-15T01:05:15;2.60;99.90
18392;DHT22;9322;50.932;5.318;2023-02-15T01:07:41;2.50;99.90
18392;DHT22;9322;50.932;5.318;2023-02-15T01:10:07;2.40;99.90
18392;DHT22;9322;50.932;5.318;2023-02-15T01:12:33;2.40;99.90
18392;DHT22;9322;50.932;5.318;2023-02-15T01:14:59;2.50;99.90
18392;DHT22;9322;50.932;5.318;2023-02-15T01:17:25;2.60;99.90
18392;DHT22;9322;50.932;5.318;2023-02-15T01:19:50;2.60;99.90
18392;DHT22;9322;50.932;5.318;2023-02-15T01:22:17;2.60;99.90
18392;DHT22;9322;50.932;5.318;2023-02-15T01:24:43;2.70;99.90
18392;DHT22;9322;50.932;5.318;2023-02-15T01:27:09;2.80;99.90
18392;DHT22;9322;50.932;5.318;2023-02-15T01:29:35;2.90;99.90
18392;DHT22;9322;50.932;5.318;2023-02-15T01:32:00;2.80;99.90
18392;DHT22;9322;50.932;5.318;2023-02-15T01:34:26;2.80;99.90
18392;DHT22;9322;50.932;5.318;2023-02-15T01:36:52;2.80;99.90
18392;DHT22;9322;50.932;5.318;2023-02-15T01:39:17;2.90;99.90
18392;DHT22;9322;50.932;5.318;2023-02-15T01:41:43;2.90;99.90
18392;DHT22;9322;50.932;5.318;2023-02-15T01:44:47;3.20;99.90
18392;DHT22;9322;50.932;5.318;2023-02-15T01:52:59;2.90;99.90
18392;DHT22;9322;50.932;5.318;2023-02-15T01:55:33;2.90;99.90
18392;DHT22;9322;50.932;5.318;2023-02-15T01:58:00;2.80;99.90
18392;DHT22;9322;50.932;5.318;2023-02-15T02:00:26;3.00;99.90
18392;DHT22;9322;50.932;5.318;2023-02-15T02:02:54;3.20;99.90
18392;DHT22;9322;50.932;5.318;2023-02-15T02:05:21;3.20;99.90
18392;DHT22;9322;50.932;5.318;2023-02-15T02:07:48;3.10;99.90
18392;DHT22;9322;50.932;5.318;2023-02-15T02:10:18;3.00;99.90
18392;DHT22;9322;50.932;5.318;2023-02-15T02:12:46;2.90;99.90
18392;DHT22;9322;50.932;5.318;2023-02-15T02:15:13;2.80;99.90
18392;DHT22;9322;50.932;5.318;2023-02-15T02:17:56;2.80;99.90
18392;DHT22;9322;50.932;5.318;2023-02-15T02:26:28;2.80;99.90
18392;DHT22;9322;50.932;5.318;2023-02-15T02:34:41;2.90;99.90
18392;DHT22;9322;50.932;5.318;2023-02-15T02:45:45;2.70;99.90
18392;DHT22;9322;50.932;5.318;2023-02-15T02:48:20;2.70;99.90
18392;DHT22;9322;50.932;5.318;2023-02-15T02:50:46;2.70;99.90
18392;DHT22;9322;50.932;5.318;2023-02-15T02:53:12;2.70;99.90
18392;DHT22;9322;50.932;5.318;2023-02-15T02:55:59;2.70;99.90
18392;DHT22;9322;50.932;5.318;2023-02-15T02:58:41;2.70;99.90
18392;DHT22;9322;50.932;5.318;2023-02-15T03:01:35;2.60;99.90
18392;DHT22;9322;50.932;5.318;2023-02-15T03:04:21;2.50;99.90
18392;DHT22;9322;50.932;5.318;2023-02-15T03:07:00;2.50;99.90
18392;DHT22;9322;50.932;5.318;2023-02-15T03:09:30;2.50;99.90
18392;DHT22;9322;50.932;5.318;2023-02-15T03:12:31;2.60;99.90
18392;DHT22;9322;50.932;5.318;2023-02-15T03:15:05;2.60;99.90
18392;DHT22;9322;50.932;5.318;2023-02-15T03:17:33;2.50;99.90
18392;DHT22;9322;50.932;5.318;2023-02-15T03:20:06;2.50;99.90
18392;DHT22;9322;50.932;5.318;2023-02-15T03:22:46;2.40;99.90
18392;DHT22;9322;50.932;5.318;2023-02-15T03:27:48;2.00;99.90
18392;DHT22;9322;50.932;5.318;2023-02-15T03:30:15;1.90;99.90
18392;DHT22;9322;50.932;5.318;2023-02-15T03:32:43;1.80;99.90
18392;DHT22;9322;50.932;5.318;2023-02-15T03:35:10;1.70;99.90
18392;DHT22;9322;50.932;5.318;2023-02-15T03:37:48;1.70;99.90
18392;DHT22;9322;50.932;5.318;2023-02-15T03:43:21;1.70;99.90
18392;DHT22;9322;50.932;5.318;2023-02-15T03:45:52;1.70;99.90
18392;DHT22;9322;50.932;5.318;2023-02-15T03:48:37;1.70;99.90
18392;DHT22;9322;50.932;5.318;2023-02-15T03:51:08;1.80;99.90
18392;DHT22;9322;50.932;5.318;2023-02-15T03:53:54;2.00;99.90
18392;DHT22;9322;50.932;5.318;2023-02-15T03:56:20;2.10;99.90
18392;DHT22;9322;50.932;5.318;2023-02-15T03:58:46;2.20;99.90
18392;DHT22;9322;50.932;5.318;2023-02-15T04:01:36;2.20;99.90
18392;DHT22;9322;50.932;5.318;2023-02-15T04:04:23;2.10;99.90
18392;DHT22;9322;50.932;5.318;2023-02-15T04:06:50;2.00;99.90
18392;DHT22;9322;50.932;5.318;2023-02-15T04:09:16;2.00;99.90
18392;DHT22;9322;50.932;5.318;2023-02-15T04:12:00;2.00;99.90
18392;DHT22;9322;50.932;5.318;2023-02-15T04:14:26;2.00;99.90
18392;DHT22;9322;50.932;5.318;2023-02-15T04:17:10;2.00;99.90
18392;DHT22;9322;50.932;5.318;2023-02-15T04:19:36;1.90;99.90
18392;DHT22;9322;50.932;5.318;2023-02-15T04:22:20;1.90;99.90
18392;DHT22;9322;50.932;5.318;2023-02-15T04:25:05;1.80;99.90
18392;DHT22;9322;50.932;5.318;2023-02-15T04:27:44;1.70;99.90
18392;DHT22;9322;50.932;5.318;2023-02-15T04:30:11;1.60;99.90
18392;DHT22;9322;50.932;5.318;2023-02-15T04:32:37;1.60;99.90
18392;DHT22;9322;50.932;5.318;2023-02-15T04:35:05;1.60;99.90
18392;DHT22;9322;50.932;5.318;2023-02-15T04:37:31;1.50;99.90
18392;DHT22;9322;50.932;5.318;2023-02-15T04:39:57;1.40;99.90
18392;DHT22;9322;50.932;5.318;2023-02-15T04:42:24;1.30;99.90
18392;DHT22;9322;50.932;5.318;2023-02-15T04:44:51;1.30;99.90
18392;DHT22;9322;50.932;5.318;2023-02-15T04:47:17;1.40;99.90
18392;DHT22;9322;50.932;5.318;2023-02-15T04:49:43;1.40;99.90
18392;DHT22;9322;50.932;5.318;2023-02-15T04:52:09;1.40;99.90
18392;DHT22;9322;50.932;5.318;2023-02-15T04:54:34;1.40;99.90
18392;DHT22;9322;50.932;5.318;2023-02-15T04:57:00;1.40;99.90
18392;DHT22;9322;50.932;5.318;2023-02-15T04:59:26;1.40;99.90
18392;DHT22;9322;50.932;5.318;2023-02-15T05:01:52;1.30;99.90
18392;DHT22;9322;50.932;5.318;2023-02-15T05:04:17;1.30;99.90
18392;DHT22;9322;50.932;5.318;2023-02-15T05:06:43;1.30;99.90
18392;DHT22;9322;50.932;5.318;2023-02-15T05:09:10;1.30;99.90
18392;DHT22;9322;50.932;5.318;2023-02-15T05:11:36;1.30;99.90
18392;DHT22;9322;50.932;5.318;2023-02-15T05:14:02;1.40;99.90
18392;DHT22;9322;50.932;5.318;2023-02-15T05:16:27;1.40;99.90
18392;DHT22;9322;50.932;5.318;2023-02-15T05:18:53;1.40;99.90
18392;DHT22;9322;50.932;5.318;2023-02-15T05:21:19;1.40;99.90
18392;DHT22;9322;50.932;5.318;2023-02-15T05:23:44;1.30;99.90
18392;DHT22;9322;50.932;5.318;2023-02-15T05:26:16;1.20;99.90
18392;DHT22;9322;50.932;5.318;2023-02-15T05:29:01;1.10;99.90
18392;DHT22;9322;50.932;5.318;2023-02-15T05:31:27;1.00;99.90
18392;DHT22;9322;50.932;5.318;2023-02-15T05:33:52;1.10;99.90
18392;DHT22;9322;50.932;5.318;2023-02-15T05:36:18;1.20;99.90
18392;DHT22;9322;50.932;5.318;2023-02-15T05:38:44;1.30;99.90
18392;DHT22;9322;50.932;5.318;2023-02-15T05:41:10;1.30;99.90
18392;DHT22;9322;50.932;5.318;2023-02-15T05:43:36;1.30;99.90
18392;DHT22;9322;50.932;5.318;2023-02-15T05:46:03;1.20;99.90
18392;DHT22;9322;50.932;5.318;2023-02-15T05:48:29;1.30;99.90
18392;DHT22;9322;50.932;5.318;2023-02-15T05:51:06;1.40;99.90
18392;DHT22;9322;50.932;5.318;2023-02-15T05:53:34;1.40;99.90
18392;DHT22;9322;50.932;5.318;2023-02-15T05:56:01;1.40;99.90
18392;DHT22;9322;50.932;5.318;2023-02-15T05:58:40;1.40;99.90
18392;DHT22;9322;50.932;5.318;2023-02-15T06:01:14;1.30;99.90
18392;DHT22;9322;50.932;5.318;2023-02-15T06:03:41;1.10;99.90
18392;DHT22;9322;50.932;5.318;2023-02-15T06:06:07;1.00;99.90
18392;DHT22;9322;50.932;5.318;2023-02-15T06:08:34;0.90;99.90
18392;DHT22;9322;50.932;5.318;2023-02-15T06:11:00;0.90;99.90
18392;DHT22;9322;50.932;5.318;2023-02-15T06:13:26;1.00;99.90
18392;DHT22;9322;50.932;5.318;2023-02-15T06:15:51;1.00;99.90
18392;DHT22;9322;50.932;5.318;2023-02-15T06:18:17;1.10;99.90
18392;DHT22;9322;50.932;5.318;2023-02-15T06:20:45;1.20;99.90
18392;DHT22;9322;50.932;5.318;2023-02-15T06:23:11;1.10;99.90
18392;DHT22;9322;50.932;5.318;2023-02-15T06:25:36;1.10;99.90
18392;DHT22;9322;50.932;5.318;2023-02-15T06:28:02;1.10;99.90
18392;DHT22;9322;50.932;5.318;2023-02-15T06:30:28;1.10;99.90
18392;DHT22;9322;50.932;5.318;2023-02-15T06:32:53;1.00;99.90
18392;DHT22;9322;50.932;5.318;2023-02-15T06:35:19;1.00;99.90
18392;DHT22;9322;50.932;5.318;2023-02-15T06:37:47;1.00;99.90
18392;DHT22;9322;50.932;5.318;2023-02-15T06:40:13;1.10;99.90
18392;DHT22;9322;50.932;5.318;2023-02-15T06:42:39;1.10;99.90
18392;DHT22;9322;50.932;5.318;2023-02-15T06:45:05;1.20;99.90
18392;DHT22;9322;50.932;5.318;2023-02-15T06:47:31;1.20;99.90
18392;DHT22;9322;50.932;5.318;2023-02-15T06:49:56;1.20;99.90
18392;DHT22;9322;50.932;5.318;2023-02-15T06:52:23;1.30;99.90
18392;DHT22;9322;50.932;5.318;2023-02-15T06:54:49;1.40;99.90
18392;DHT22;9322;50.932;5.318;2023-02-15T06:57:14;1.50;99.90
18392;DHT22;9322;50.932;5.318;2023-02-15T06:59:40;1.50;99.90
18392;DHT22;9322;50.932;5.318;2023-02-15T07:02:06;1.50;99.90
18392;DHT22;9322;50.932;5.318;2023-02-15T07:04:31;1.50;99.90
18392;DHT22;9322;50.932;5.318;2023-02-15T07:06:57;1.50;99.90
18392;DHT22;9322;50.932;5.318;2023-02-15T07:09:23;1.60;99.90
18392;DHT22;9322;50.932;5.318;2023-02-15T07:11:49;1.90;99.90
18392;DHT22;9322;50.932;5.318;2023-02-15T07:14:33;2.10;99.90
18392;DHT22;9322;50.932;5.318;2023-02-15T07:16:58;2.20;99.90
18392;DHT22;9322;50.932;5.318;2023-02-15T07:19:24;2.30;99.90
18392;DHT22;9322;50.932;5.318;2023-02-15T07:21:50;2.50;99.90
18392;DHT22;9322;50.932;5.318;2023-02-15T07:24:15;2.80;99.90
18392;DHT22;9322;50.932;5.318;2023-02-15T07:26:41;3.10;99.90
18392;DHT22;9322;50.932;5.318;2023-02-15T07:29:07;3.40;99.90
18392;DHT22;9322;50.932;5.318;2023-02-15T07:31:32;3.60;99.90
18392;DHT22;9322;50.932;5.318;2023-02-15T07:33:58;3.60;99.90
18392;DHT22;9322;50.932;5.318;2023-02-15T07:36:24;3.80;99.90
18392;DHT22;9322;50.932;5.318;2023-02-15T07:38:49;3.80;1.40
18392;DHT22;9322;50.932;5.318;2023-02-15T07:41:15;3.90;1.40
18392;DHT22;9322;50.932;5.318;2023-02-15T07:43:43;4.10;1.40
18392;DHT22;9322;50.932;5.318;2023-02-15T07:46:11;4.30;1.40
18392;DHT22;9322;50.932;5.318;2023-02-15T07:48:38;4.70;1.40
18392;DHT22;9322;50.932;5.318;2023-02-15T07:51:07;5.80;1.40
18392;DHT22;9322;50.932;5.318;2023-02-15T07:53:33;7.30;1.40
18392;DHT22;9322;50.932;5.318;2023-02-15T07:56:00;8.70;1.40
18392;DHT22;9322;50.932;5.318;2023-02-15T07:58:26;9.80;1.40
18392;DHT22;9322;50.932;5.318;2023-02-15T08:01:12;10.80;1.40
18392;DHT22;9322;50.932;5.318;2023-02-15T08:03:38;11.70;1.40
18392;DHT22;9322;50.932;5.318;2023-02-15T08:06:04;11.90;1.40
18392;DHT22;9322;50.932;5.318;2023-02-15T08:08:29;11.70;1.40
18392;DHT22;9322;50.932;5.318;2023-02-15T08:11:04;11.10;1.40
18392;DHT22;9322;50.932;5.318;2023-02-15T08:13:54;11.20;1.40
18392;DHT22;9322;50.932;5.318;2023-02-15T08:16:27;11.80;1.40
18392;DHT22;9322;50.932;5.318;2023-02-15T08:18:54;12.50;1.40
18392;DHT22;9322;50.932;5.318;2023-02-15T08:21:21;12.90;1.40
18392;DHT22;9322;50.932;5.318;2023-02-15T08:23:47;12.90;1.40
18392;DHT22;9322;50.932;5.318;2023-02-15T08:26:13;12.70;1.40
18392;DHT22;9322;50.932;5.318;2023-02-15T08:28:40;12.40;1.40
18392;DHT22;9322;50.932;5.318;2023-02-15T08:31:07;11.90;1.40
18392;DHT22;9322;50.932;5.318;2023-02-15T08:33:34;11.80;1.40
18392;DHT22;9322;50.932;5.318;2023-02-15T08:36:08;12.30;1.40
18392;DHT22;9322;50.932;5.318;2023-02-15T08:38:36;13.20;1.40
18392;DHT22;9322;50.932;5.318;2023-02-15T08:41:22;14.00;1.40
18392;DHT22;9322;50.932;5.318;2023-02-15T08:43:51;14.90;1.40
18392;DHT22;9322;50.932;5.318;2023-02-15T08:46:17;16.20;1.40
18392;DHT22;9322;50.932;5.318;2023-02-15T08:48:44;17.10;1.40
18392;DHT22;9322;50.932;5.318;2023-02-15T08:51:15;17.40;1.40
18392;DHT22;9322;50.932;5.318;2023-02-15T08:53:44;17.00;1.40
18392;DHT22;9322;50.932;5.318;2023-02-15T08:56:10;16.50;1.40
18392;DHT22;9322;50.932;5.318;2023-02-15T08:58:37;16.20;1.40
18392;DHT22;9322;50.932;5.318;2023-02-15T09:01:17;16.50;1.40
18392;DHT22;9322;50.932;5.318;2023-02-15T09:03:50;16.80;1.40
18392;DHT22;9322;50.932;5.318;2023-02-15T09:06:19;17.40;1.40
18392;DHT22;9322;50.932;5.318;2023-02-15T09:08:45;17.70;1.40
18392;DHT22;9322;50.932;5.318;2023-02-15T09:11:14;17.80;1.40
18392;DHT22;9322;50.932;5.318;2023-02-15T09:13:42;17.80;1.40
18392;DHT22;9322;50.932;5.318;2023-02-15T09:16:09;16.60;1.40
18392;DHT22;9322;50.932;5.318;2023-02-15T09:18:39;16.10;1.40
18392;DHT22;9322;50.932;5.318;2023-02-15T09:21:10;15.90;1.40
18392;DHT22;9322;50.932;5.318;2023-02-15T09:23:36;16.20;1.40
18392;DHT22;9322;50.932;5.318;2023-02-15T09:26:06;15.40;1.40
18392;DHT22;9322;50.932;5.318;2023-02-15T09:28:32;15.20;1.40
18392;DHT22;9322;50.932;5.318;2023-02-15T09:31:16;15.10;1.40
18392;DHT22;9322;50.932;5.318;2023-02-15T09:33:43;15.00;1.40
18392;DHT22;9322;50.932;5.318;2023-02-15T09:36:21;14.90;1.40
18392;DHT22;9322;50.932;5.318;2023-02-15T09:38:52;15.20;1.40
18392;DHT22;9322;50.932;5.318;2023-02-15T09:44:44;16.20;1.40
18392;DHT22;9322;50.932;5.318;2023-02-15T09:50:20;14.80;1.40
18392;DHT22;9322;50.932;5.318;2023-02-15T09:56:04;16.30;1.40
18392;DHT22;9322;50.932;5.318;2023-02-15T10:09:44;17.20;1.40
18392;DHT22;9322;50.932;5.318;2023-02-15T10:18:28;19.20;1.40
18392;DHT22;9322;50.932;5.318;2023-02-15T10:26:24;16.00;1.40
18392;DHT22;9322;50.932;5.318;2023-02-15T10:29:02;15.60;1.40
18392;DHT22;9322;50.932;5.318;2023-02-15T10:31:45;16.80;1.40
18392;DHT22;9322;50.932;5.318;2023-02-15T10:36:52;16.60;1.40
18392;DHT22;9322;50.932;5.318;2023-02-15T10:39:25;16.90;1.40
18392;DHT22;9322;50.932;5.318;2023-02-15T10:48:16;17.90;1.40
18392;DHT22;9322;50.932;5.318;2023-02-15T10:50:55;17.10;1.40
18392;DHT22;9322;50.932;5.318;2023-02-15T10:59:06;17.50;1.40
18392;DHT22;9322;50.932;5.318;2023-02-15T11:01:53;18.20;1.40
18392;DHT22;9322;50.932;5.318;2023-02-15T11:07:30;19.30;1.40
18392;DHT22;9322;50.932;5.318;2023-02-15T11:12:41;19.10;1.40
18392;DHT22;9322;50.932;5.318;2023-02-15T11:15:24;20.50;1.40
18392;DHT22;9322;50.932;5.318;2023-02-15T11:18:32;19.80;1.40
18392;DHT22;9322;50.932;5.318;2023-02-15T11:21:04;20.00;1.40
18392;DHT22;9322;50.932;5.318;2023-02-15T11:23:32;19.40;1.40
18392;DHT22;9322;50.932;5.318;2023-02-15T11:26:04;20.20;1.40
18392;DHT22;9322;50.932;5.318;2023-02-15T11:28:38;21.20;1.40
18392;DHT22;9322;50.932;5.318;2023-02-15T11:31:23;21.90;1.40
18392;DHT22;9322;50.932;5.318;2023-02-15T11:34:00;22.60;1.40
18392;DHT22;9322;50.932;5.318;2023-02-15T11:36:37;21.90;1.40
18392;DHT22;9322;50.932;5.318;2023-02-15T11:39:09;21.60;1.40
18392;DHT22;9322;50.932;5.318;2023-02-15T11:42:13;20.50;1.40
18392;DHT22;9322;50.932;5.318;2023-02-15T11:47:19;22.30;1.40
18392;DHT22;9322;50.932;5.318;2023-02-15T11:49:45;20.90;1.40
18392;DHT22;9322;50.932;5.318;2023-02-15T11:52:13;20.00;1.40
18392;DHT22;9322;50.932;5.318;2023-02-15T11:54:42;19.60;1.40
18392;DHT22;9322;50.932;5.318;2023-02-15T11:57:17;18.90;1.40
18392;DHT22;9322;50.932;5.318;2023-02-15T12:02:30;19.90;1.40
18392;DHT22;9322;50.932;5.318;2023-02-15T12:05:00;19.70;1.40
18392;DHT22;9322;50.932;5.318;2023-02-15T12:07:32;20.40;1.40
18392;DHT22;9322;50.932;5.318;2023-02-15T12:10:13;20.10;1.40
18392;DHT22;9322;50.932;5.318;2023-02-15T12:12:41;20.60;1.40
18392;DHT22;9322;50.932;5.318;2023-02-15T12:15:09;20.10;1.40
18392;DHT22;9322;50.932;5.318;2023-02-15T12:17:40;20.30;1.40
18392;DHT22;9322;50.932;5.318;2023-02-15T12:20:31;19.60;1.40
18392;DHT22;9322;50.932;5.318;2023-02-15T12:23:03;20.20;1.40
18392;DHT22;9322;50.932;5.318;2023-02-15T12:28:55;19.00;1.40
18392;DHT22;9322;50.932;5.318;2023-02-15T12:31:45;19.00;1.40
18392;DHT22;9322;50.932;5.318;2023-02-15T12:34:32;19.10;1.40
18392;DHT22;9322;50.932;5.318;2023-02-15T12:37:02;19.10;1.40
18392;DHT22;9322;50.932;5.318;2023-02-15T12:39:30;18.80;1.40
18392;DHT22;9322;50.932;5.318;2023-02-15T12:42:03;17.90;1.40
18392;DHT22;9322;50.932;5.318;2023-02-15T12:44:32;18.70;1.40
18392;DHT22;9322;50.932;5.318;2023-02-15T12:47:05;18.40;1.40
18392;DHT22;9322;50.932;5.318;2023-02-15T12:49:34;18.30;1.40
18392;DHT22;9322;50.932;5.318;2023-02-15T12:52:02;17.70;1.40
18392;DHT22;9322;50.932;5.318;2023-02-15T12:54:36;17.10;1.40
18392;DHT22;9322;50.932;5.318;2023-02-15T13:00:00;16.00;1.40
18392;DHT22;9322;50.932;5.318;2023-02-15T13:05:29;15.80;1.40
18392;DHT22;9322;50.932;5.318;2023-02-15T13:08:27;15.70;1.40
18392;DHT22;9322;50.932;5.318;2023-02-15T13:11:00;16.00;1.40
18392;DHT22;9322;50.932;5.318;2023-02-15T13:13:28;15.80;1.40
18392;DHT22;9322;50.932;5.318;2023-02-15T13:16:15;16.20;1.40
18392;DHT22;9322;50.932;5.318;2023-02-15T13:18:46;15.40;1.40
18392;DHT22;9322;50.932;5.318;2023-02-15T13:21:15;15.60;1.40
18392;DHT22;9322;50.932;5.318;2023-02-15T13:23:48;15.70;1.40
18392;DHT22;9322;50.932;5.318;2023-02-15T13:26:18;15.70;1.40
18392;DHT22;9322;50.932;5.318;2023-02-15T13:28:47;15.60;1.40
18392;DHT22;9322;50.932;5.318;2023-02-15T13:31:25;15.60;1.40
18392;DHT22;9322;50.932;5.318;2023-02-15T13:34:24;15.40;1.40
18392;DHT22;9322;50.932;5.318;2023-02-15T13:36:54;15.50;1.40
18392;DHT22;9322;50.932;5.318;2023-02-15T13:39:34;15.60;1.40
18392;DHT22;9322;50.932;5.318;2023-02-15T13:48:15;15.90;1.40
18392;DHT22;9322;50.932;5.318;2023-02-15T13:53:48;15.60;1.40
18392;DHT22;9322;50.932;5.318;2023-02-15T14:02:33;15.60;1.40
18392;DHT22;9322;50.932;5.318;2023-02-15T14:05:22;15.40;1.40
18392;DHT22;9322;50.932;5.318;2023-02-15T14:08:00;15.40;1.40
18392;DHT22;9322;50.932;5.318;2023-02-15T14:21:38;15.40;1.40
18392;DHT22;9322;50.932;5.318;2023-02-15T14:27:10;15.30;1.40
18392;DHT22;9322;50.932;5.318;2023-02-15T14:29:46;15.50;1.40
18392;DHT22;9322;50.932;5.318;2023-02-15T14:32:37;15.50;1.40
18392;DHT22;9322;50.932;5.318;2023-02-15T14:35:12;15.40;1.40
18392;DHT22;9322;50.932;5.318;2023-02-15T14:43:19;15.30;1.40
18392;DHT22;9322;50.932;5.318;2023-02-15T14:45:56;15.30;1.40
18392;DHT22;9322;50.932;5.318;2023-02-15T14:48:35;15.10;1.40
18392;DHT22;9322;50.932;5.318;2023-02-15T14:51:01;15.00;1.40
18392;DHT22;9322;50.932;5.318;2023-02-15T14:53:34;15.00;1.40
18392;DHT22;9322;50.932;5.318;2023-02-15T14:58:36;14.70;1.40
18392;DHT22;9322;50.932;5.318;2023-02-15T15:01:10;14.60;1.40
18392;DHT22;9322;50.932;5.318;2023-02-15T15:03:36;14.60;1.40
18392;DHT22;9322;50.932;5.318;2023-02-15T15:06:28;14.60;1.40
18392;DHT22;9322;50.932;5.318;2023-02-15T15:09:20;14.60;1.40
18392;DHT22;9322;50.932;5.318;2023-02-15T15:11:49;14.60;1.40
18392;DHT22;9322;50.932;5.318;2023-02-15T15:14:43;14.50;1.40
18392;DHT22;9322;50.932;5.318;2023-02-15T15:22:43;14.50;1.40
18392;DHT22;9322;50.932;5.318;2023-02-15T15:25:45;14.40;1.40
18392;DHT22;9322;50.932;5.318;2023-02-15T15:41:41;13.90;1.40
18392;DHT22;9322;50.932;5.318;2023-02-15T15:49:55;13.80;1.40
18392;DHT22;9322;50.932;5.318;2023-02-15T15:52:22;13.60;1.40
18392;DHT22;9322;50.932;5.318;2023-02-15T15:54:51;13.60;1.40
18392;DHT22;9322;50.932;5.318;2023-02-15T15:57:28;13.40;1.40
18392;DHT22;9322;50.932;5.318;2023-02-15T15:59:54;13.40;1.40
18392;DHT22;9322;50.932;5.318;2023-02-15T16:02:21;13.30;1.40
18392;DHT22;9322;50.932;5.318;2023-02-15T16:04:48;13.20;1.40
18392;DHT22;9322;50.932;5.318;2023-02-15T16:12:31;13.20;1.40
18392;DHT22;9322;50.932;5.318;2023-02-15T16:15:01;13.10;1.40
18392;DHT22;9322;50.932;5.318;2023-02-15T16:17:29;13.00;1.40
18392;DHT22;9322;50.932;5.318;2023-02-15T16:20:11;12.90;1.40
18392;DHT22;9322;50.932;5.318;2023-02-15T16:22:39;12.70;1.40
18392;DHT22;9322;50.932;5.318;2023-02-15T16:28:13;12.60;1.40
18392;DHT22;9322;50.932;5.318;2023-02-15T16:30:39;12.50;1.40
18392;DHT22;9322;50.932;5.318;2023-02-15T16:33:14;12.40;1.40
18392;DHT22;9322;50.932;5.318;2023-02-15T16:35:55;12.20;1.40
18392;DHT22;9322;50.932;5.318;2023-02-15T16:41:21;12.00;1.40
18392;DHT22;9322;50.932;5.318;2023-02-15T16:43:48;11.90;1.40
18392;DHT22;9322;50.932;5.318;2023-02-15T16:46:42;11.70;1.40
18392;DHT22;9322;50.932;5.318;2023-02-15T16:49:20;11.70;1.40
18392;DHT22;9322;50.932;5.318;2023-02-15T16:51:55;11.70;1.40
18392;DHT22;9322;50.932;5.318;2023-02-15T16:54:22;11.60;1.40
18392;DHT22;9322;50.932;5.318;2023-02-15T16:56:48;11.50;1.40
18392;DHT22;9322;50.932;5.318;2023-02-15T16:59:34;11.40;1.40
18392;DHT22;9322;50.932;5.318;2023-02-15T17:02:04;11.40;1.40
18392;DHT22;9322;50.932;5.318;2023-02-15T17:04:31;11.20;1.40
18392;DHT22;9322;50.932;5.318;2023-02-15T17:07:04;11.20;1.40
18392;DHT22;9322;50.932;5.318;2023-02-15T17:09:31;11.10;1.40
18392;DHT22;9322;50.932;5.318;2023-02-15T17:11:57;11.00;1.40
18392;DHT22;9322;50.932;5.318;2023-02-15T17:14:30;10.90;1.40
18392;DHT22;9322;50.932;5.318;2023-02-15T17:17:07;10.90;1.40
18392;DHT22;9322;50.932;5.318;2023-02-15T17:19:49;10.90;1.40
18392;DHT22;9322;50.932;5.318;2023-02-15T17:22:26;10.70;1.40
18392;DHT22;9322;50.932;5.318;2023-02-15T17:25:02;10.70;1.40
18392;DHT22;9322;50.932;5.318;2023-02-15T17:27:31;10.60;1.40
18392;DHT22;9322;50.932;5.318;2023-02-15T17:30:00;10.70;1.40
18392;DHT22;9322;50.932;5.318;2023-02-15T17:32:29;10.80;1.40
18392;DHT22;9322;50.932;5.318;2023-02-15T17:40:21;10.80;1.40
18392;DHT22;9322;50.932;5.318;2023-02-15T17:42:47;10.70;1.40
18392;DHT22;9322;50.932;5.318;2023-02-15T17:45:13;10.60;1.40
18392;DHT22;9322;50.932;5.318;2023-02-15T17:47:39;10.60;1.40
18392;DHT22;9322;50.932;5.318;2023-02-15T17:50:06;10.50;1.40
18392;DHT22;9322;50.932;5.318;2023-02-15T17:52:33;10.50;1.40
18392;DHT22;9322;50.932;5.318;2023-02-15T17:55:07;10.30;1.40
18392;DHT22;9322;50.932;5.318;2023-02-15T17:57:56;10.60;1.40
18392;DHT22;9322;50.932;5.318;2023-02-15T18:00:21;10.40;1.40
18392;DHT22;9322;50.932;5.318;2023-02-15T18:03:09;10.20;1.40
18392;DHT22;9322;50.932;5.318;2023-02-15T18:05:54;10.00;1.40
18392;DHT22;9322;50.932;5.318;2023-02-15T18:08:38;10.20;1.40
18392;DHT22;9322;50.932;5.318;2023-02-15T18:11:22;10.10;1.40
18392;DHT22;9322;50.932;5.318;2023-02-15T18:14:08;10.10;1.40
18392;DHT22;9322;50.932;5.318;2023-02-15T18:16:36;10.00;1.40
18392;DHT22;9322;50.932;5.318;2023-02-15T18:19:04;9.90;1.40
18392;DHT22;9322;50.932;5.318;2023-02-15T18:21:31;10.00;1.40
18392;DHT22;9322;50.932;5.318;2023-02-15T18:23:57;9.70;1.40
18392;DHT22;9322;50.932;5.318;2023-02-15T18:26:24;9.70;1.40
18392;DHT22;9322;50.932;5.318;2023-02-15T18:28:51;9.70;1.40
18392;DHT22;9322;50.932;5.318;2023-02-15T18:31:18;9.60;1.40
18392;DHT22;9322;50.932;5.318;2023-02-15T18:33:46;9.60;1.40
18392;DHT22;9322;50.932;5.318;2023-02-15T18:36:39;9.60;1.40
18392;DHT22;9322;50.932;5.318;2023-02-15T18:39:26;9.70;1.40
18392;DHT22;9322;50.932;5.318;2023-02-15T18:41:55;9.60;1.40
18392;DHT22;9322;50.932;5.318;2023-02-15T18:44:20;9.60;1.40
18392;DHT22;9322;50.932;5.318;2023-02-15T18:46:46;9.50;1.40
18392;DHT22;9322;50.932;5.318;2023-02-15T18:49:11;9.50;1.40
18392;DHT22;9322;50.932;5.318;2023-02-15T18:51:37;9.50;1.40
18392;DHT22;9322;50.932;5.318;2023-02-15T18:54:15;9.50;1.40
18392;DHT22;9322;50.932;5.318;2023-02-15T18:56:42;9.50;1.40
18392;DHT22;9322;50.932;5.318;2023-02-15T18:59:14;9.30;1.40
18392;DHT22;9322;50.932;5.318;2023-02-15T19:01:40;9.30;1.40
18392;DHT22;9322;50.932;5.318;2023-02-15T19:04:07;9.20;1.40
18392;DHT22;9322;50.932;5.318;2023-02-15T19:06:32;9.10;1.40
18392;DHT22;9322;50.932;5.318;2023-02-15T19:08:58;9.30;1.40
18392;DHT22;9322;50.932;5.318;2023-02-15T19:11:24;9.20;1.40
18392;DHT22;9322;50.932;5.318;2023-02-15T19:13:51;9.20;1.40
18392;DHT22;9322;50.932;5.318;2023-02-15T19:16:32;9.20;1.40
18392;DHT22;9322;50.932;5.318;2023-02-15T19:18:58;9.20;1.40
18392;DHT22;9322;50.932;5.318;2023-02-15T19:21:26;9.10;1.40
18392;DHT22;9322;50.932;5.318;2023-02-15T19:24:07;9.00;1.40
18392;DHT22;9322;50.932;5.318;2023-02-15T19:26:37;8.90;1.40